createdAt,value
2018-04-10T00:00:17.240Z,15.63
2018-04-10T00:01:17.309Z,15.63
2018-04-10T00:02:17.362Z,15.56
2018-04-10T00:03:17.235Z,15.56
2018-04-10T00:04:17.225Z,15.5
2018-04-10T00:05:17.281Z,15.56
2018-04-10T00:06:17.295Z,15.56
2018-04-10T00:07:17.286Z,15.56
2018-04-10T00:08:17.276Z,15.5
2018-04-10T00:09:17.263Z,15.5
2018-04-10T00:10:17.251Z,15.44
2018-04-10T00:11:17.256Z,15.44
2018-04-10T00:12:17.280Z,15.44
2018-04-10T00:13:17.266Z,15.38
2018-04-10T00:14:17.281Z,15.38
2018-04-10T00:15:17.268Z,15.38
2018-04-10T00:16:17.286Z,15.38
2018-04-10T00:17:17.367Z,15.31
2018-04-10T00:18:17.306Z,15.31
2018-04-10T00:19:17.302Z,15.25
2018-04-10T00:20:17.305Z,15.25
2018-04-10T00:21:17.289Z,15.25
2018-04-10T00:22:17.385Z,15.25
2018-04-10T00:23:17.296Z,15.25
2018-04-10T00:24:17.292Z,15.19
2018-04-10T00:25:17.320Z,15.19
2018-04-10T00:26:17.304Z,15.19
2018-04-10T00:27:17.342Z,15.19
2018-04-10T00:28:17.333Z,15.13
2018-04-10T00:29:17.324Z,15.19
2018-04-10T00:30:17.307Z,15.13
2018-04-10T00:31:17.346Z,15.13
2018-04-10T00:32:17.348Z,15.13
2018-04-10T00:33:17.326Z,15.06
2018-04-10T00:34:17.465Z,15.13
2018-04-10T00:35:17.321Z,15.06
2018-04-10T00:36:17.359Z,15.06
2018-04-10T00:37:17.390Z,15.06
2018-04-10T00:38:17.361Z,15.06
2018-04-10T00:39:17.348Z,15
2018-04-10T00:40:17.362Z,15
2018-04-10T00:41:17.396Z,15
2018-04-10T00:42:17.386Z,15
2018-04-10T00:43:17.362Z,14.94
2018-04-10T00:44:17.416Z,15
2018-04-10T00:45:17.369Z,14.94
2018-04-10T00:46:17.370Z,14.94
2018-04-10T00:47:17.408Z,14.87
2018-04-10T00:48:17.386Z,14.87
2018-04-10T00:49:17.371Z,14.81
2018-04-10T00:50:17.399Z,14.81
2018-04-10T00:51:17.383Z,14.81
2018-04-10T00:52:17.397Z,14.81
2018-04-10T00:53:17.388Z,14.75
2018-04-10T00:54:17.395Z,14.75
2018-04-10T00:55:17.385Z,14.75
2018-04-10T00:56:17.397Z,14.75
2018-04-10T00:57:17.423Z,14.81
2018-04-10T00:58:17.457Z,14.69
2018-04-10T00:59:17.426Z,14.69
2018-04-10T01:00:17.450Z,14.63
2018-04-10T01:01:17.418Z,14.69
2018-04-10T01:02:17.410Z,14.63
2018-04-10T01:03:17.423Z,14.63
2018-04-10T01:04:17.416Z,14.63
2018-04-10T01:05:17.418Z,14.63
2018-04-10T01:06:17.459Z,14.63
2018-04-10T01:07:17.440Z,14.63
2018-04-10T01:08:17.462Z,14.63
2018-04-10T01:09:17.434Z,14.56
2018-04-10T01:10:17.525Z,14.56
2018-04-10T01:11:17.446Z,14.56
2018-04-10T01:12:17.457Z,14.56
2018-04-10T01:13:17.437Z,14.56
2018-04-10T01:14:17.436Z,14.5
2018-04-10T01:15:17.468Z,14.44
2018-04-10T01:16:17.456Z,14.44
2018-04-10T01:17:17.489Z,14.38
2018-04-10T01:18:17.617Z,14.38
2018-04-10T01:19:17.483Z,14.38
2018-04-10T01:20:17.486Z,14.31
2018-04-10T01:21:17.529Z,14.31
2018-04-10T01:22:17.510Z,14.31
2018-04-10T01:23:17.492Z,14.25
2018-04-10T01:24:17.538Z,14.31
2018-04-10T01:25:17.521Z,14.25
2018-04-10T01:26:17.528Z,14.31
2018-04-10T01:27:17.555Z,14.25
2018-04-10T01:28:17.655Z,14.25
2018-04-10T01:29:17.505Z,14.31
2018-04-10T01:30:17.519Z,14.25
2018-04-10T01:31:17.531Z,14.25
2018-04-10T01:32:17.516Z,14.25
2018-04-10T01:33:17.528Z,14.25
2018-04-10T01:34:17.544Z,14.25
2018-04-10T01:35:17.526Z,14.19
2018-04-10T01:36:17.713Z,14.25
2018-04-10T01:37:17.546Z,14.25
2018-04-10T01:38:17.539Z,14.25
2018-04-10T01:39:17.550Z,14.25
2018-04-10T01:40:17.629Z,14.25
2018-04-10T01:41:17.527Z,14.19
2018-04-10T01:42:17.749Z,14.25
2018-04-10T01:43:17.597Z,14.25
2018-04-10T01:44:17.570Z,14.19
2018-04-10T01:45:17.843Z,14.13
2018-04-10T01:46:17.561Z,14.13
2018-04-10T01:47:17.773Z,14.13
2018-04-10T01:48:17.553Z,14.19
2018-04-10T01:49:17.618Z,14.19
2018-04-10T01:50:17.595Z,14.13
2018-04-10T01:51:17.570Z,14.13
2018-04-10T01:52:17.565Z,14.06
2018-04-10T01:53:17.569Z,14.06
2018-04-10T01:54:17.590Z,14.06
2018-04-10T01:55:17.634Z,14
2018-04-10T01:56:17.659Z,14.06
2018-04-10T01:57:17.695Z,14
2018-04-10T01:58:17.607Z,14
2018-04-10T01:59:17.606Z,14
2018-04-10T02:00:17.659Z,14
2018-04-10T02:01:17.602Z,14
2018-04-10T02:02:17.626Z,14
2018-04-10T02:03:17.615Z,14
2018-04-10T02:04:17.666Z,14
2018-04-10T02:05:17.618Z,14
2018-04-10T02:06:17.625Z,14
2018-04-10T02:07:17.622Z,14
2018-04-10T02:08:17.858Z,14
2018-04-10T02:09:17.644Z,14
2018-04-10T02:10:17.663Z,14
2018-04-10T02:11:17.642Z,14
2018-04-10T02:12:17.705Z,14
2018-04-10T02:13:17.631Z,13.94
2018-04-10T02:14:17.653Z,13.94
2018-04-10T02:15:17.671Z,13.94
2018-04-10T02:16:17.686Z,13.94
2018-04-10T02:17:17.673Z,13.94
2018-04-10T02:18:17.705Z,14
2018-04-10T02:19:17.713Z,14
2018-04-10T02:20:17.675Z,13.94
2018-04-10T02:21:17.674Z,13.94
2018-04-10T02:22:17.684Z,13.94
2018-04-10T02:23:17.696Z,13.94
2018-04-10T02:24:17.688Z,13.94
2018-04-10T02:25:17.682Z,14
2018-04-10T02:26:17.685Z,13.94
2018-04-10T02:27:17.725Z,13.94
2018-04-10T02:28:17.713Z,14
2018-04-10T02:29:17.707Z,14
2018-04-10T02:30:17.685Z,14
2018-04-10T02:31:17.694Z,14
2018-04-10T02:32:17.694Z,14
2018-04-10T02:33:17.721Z,14
2018-04-10T02:34:17.746Z,14
2018-04-10T02:35:17.732Z,14
2018-04-10T02:36:17.741Z,14
2018-04-10T02:37:17.712Z,14
2018-04-10T02:38:17.773Z,13.94
2018-04-10T02:39:17.893Z,13.94
2018-04-10T02:40:17.772Z,13.94
2018-04-10T02:41:17.759Z,13.94
2018-04-10T02:42:18.045Z,13.94
2018-04-10T02:43:17.736Z,13.94
2018-04-10T02:44:17.761Z,13.88
2018-04-10T02:45:17.780Z,13.88
2018-04-10T02:46:17.898Z,13.81
2018-04-10T02:47:17.863Z,13.88
2018-04-10T02:48:17.753Z,13.88
2018-04-10T02:49:17.730Z,13.81
2018-04-10T02:50:17.915Z,13.88
2018-04-10T02:51:17.768Z,13.81
2018-04-10T02:52:17.881Z,13.81
2018-04-10T02:53:17.785Z,13.81
2018-04-10T02:54:17.776Z,13.88
2018-04-10T02:55:17.776Z,13.81
2018-04-10T02:56:17.788Z,13.81
2018-04-10T02:57:17.796Z,13.81
2018-04-10T02:58:17.788Z,13.81
2018-04-10T02:59:17.821Z,13.81
2018-04-10T03:00:17.781Z,13.81
2018-04-10T03:01:17.793Z,13.75
2018-04-10T03:02:17.802Z,13.81
2018-04-10T03:03:17.805Z,13.81
2018-04-10T03:04:17.854Z,13.81
2018-04-10T03:05:17.777Z,13.88
2018-04-10T03:06:17.790Z,13.81
2018-04-10T03:07:17.819Z,13.81
2018-04-10T03:08:17.999Z,13.75
2018-04-10T03:09:17.863Z,13.81
2018-04-10T03:10:17.827Z,13.81
2018-04-10T03:11:17.823Z,13.81
2018-04-10T03:12:17.828Z,13.81
2018-04-10T03:13:17.877Z,13.81
2018-04-10T03:14:17.821Z,13.81
2018-04-10T03:15:17.841Z,13.81
2018-04-10T03:16:17.896Z,13.81
2018-04-10T03:17:17.838Z,13.81
2018-04-10T03:18:17.920Z,13.75
2018-04-10T03:19:17.848Z,13.81
2018-04-10T03:20:17.872Z,13.88
2018-04-10T03:21:17.842Z,13.81
2018-04-10T03:22:17.874Z,13.81
2018-04-10T03:23:17.873Z,13.81
2018-04-10T03:24:17.871Z,13.88
2018-04-10T03:25:17.869Z,13.81
2018-04-10T03:26:17.881Z,13.88
2018-04-10T03:27:17.876Z,13.88
2018-04-10T03:28:17.860Z,13.88
2018-04-10T03:29:17.872Z,13.88
2018-04-10T03:30:17.891Z,13.81
2018-04-10T03:31:17.876Z,13.81
2018-04-10T03:32:17.892Z,13.88
2018-04-10T03:33:17.881Z,13.81
2018-04-10T03:34:17.931Z,13.88
2018-04-10T03:35:17.931Z,13.81
2018-04-10T03:36:17.893Z,13.88
2018-04-10T03:37:17.901Z,13.88
2018-04-10T03:38:17.914Z,13.81
2018-04-10T03:39:17.929Z,13.88
2018-04-10T03:40:17.909Z,13.88
2018-04-10T03:41:17.900Z,13.81
2018-04-10T03:42:17.952Z,13.81
2018-04-10T03:43:18.033Z,13.81
2018-04-10T03:44:17.929Z,13.88
2018-04-10T03:45:17.936Z,13.81
2018-04-10T03:46:17.962Z,13.88
2018-04-10T03:47:18.015Z,13.88
2018-04-10T03:48:17.953Z,13.81
2018-04-10T03:49:17.965Z,13.88
2018-04-10T03:50:17.985Z,13.88
2018-04-10T03:51:17.968Z,13.88
2018-04-10T03:52:18.068Z,13.88
2018-04-10T03:53:18.028Z,13.88
2018-04-10T03:54:17.992Z,13.94
2018-04-10T03:55:17.946Z,13.88
2018-04-10T03:56:17.968Z,13.88
2018-04-10T03:57:17.963Z,13.88
2018-04-10T03:58:17.953Z,13.88
2018-04-10T03:59:18.069Z,13.88
2018-04-10T04:00:17.994Z,13.88
2018-04-10T04:01:17.968Z,13.88
2018-04-10T04:02:17.996Z,13.88
2018-04-10T04:03:17.968Z,13.94
2018-04-10T04:04:18.000Z,13.94
2018-04-10T04:05:17.974Z,13.88
2018-04-10T04:06:17.988Z,13.94
2018-04-10T04:07:17.991Z,13.88
2018-04-10T04:08:17.986Z,13.94
2018-04-10T04:09:18.020Z,13.94
2018-04-10T04:10:17.990Z,13.88
2018-04-10T04:11:18.014Z,13.88
2018-04-10T04:12:17.986Z,13.88
2018-04-10T04:13:18.004Z,13.88
2018-04-10T04:14:18.019Z,13.94
2018-04-10T04:15:18.018Z,13.88
2018-04-10T04:16:18.024Z,13.88
2018-04-10T04:17:18.016Z,13.88
2018-04-10T04:18:18.041Z,13.88
2018-04-10T04:19:18.049Z,13.88
2018-04-10T04:20:18.042Z,13.88
2018-04-10T04:21:18.019Z,13.88
2018-04-10T04:22:18.042Z,13.81
2018-04-10T04:23:18.131Z,13.88
2018-04-10T04:24:18.042Z,13.81
2018-04-10T04:25:18.039Z,13.88
2018-04-10T04:26:18.064Z,13.88
2018-04-10T04:27:18.068Z,13.81
2018-04-10T04:28:18.050Z,13.88
2018-04-10T04:29:18.104Z,13.88
2018-04-10T04:30:18.125Z,13.81
2018-04-10T04:31:18.116Z,13.81
2018-04-10T04:32:18.138Z,13.81
2018-04-10T04:33:18.051Z,13.81
2018-04-10T04:34:18.475Z,13.75
2018-04-10T04:35:18.134Z,13.75
2018-04-10T04:36:18.087Z,13.75
2018-04-10T04:37:18.122Z,13.69
2018-04-10T04:38:18.071Z,13.69
2018-04-10T04:39:18.160Z,13.69
2018-04-10T04:40:18.085Z,13.69
2018-04-10T04:41:18.258Z,13.69
2018-04-10T04:42:18.131Z,13.69
2018-04-10T04:43:18.086Z,13.75
2018-04-10T04:44:18.178Z,13.69
2018-04-10T04:45:18.080Z,13.75
2018-04-10T04:46:18.113Z,13.75
2018-04-10T04:47:18.310Z,13.69
2018-04-10T04:48:18.124Z,13.69
2018-04-10T04:49:18.146Z,13.69
2018-04-10T04:50:18.129Z,13.69
2018-04-10T04:51:18.169Z,13.62
2018-04-10T04:52:18.147Z,13.69
2018-04-10T04:53:18.176Z,13.69
2018-04-10T04:54:18.253Z,13.56
2018-04-10T04:55:18.185Z,13.62
2018-04-10T04:56:18.212Z,13.56
2018-04-10T04:57:18.267Z,13.62
2018-04-10T04:58:18.151Z,13.62
2018-04-10T04:59:18.167Z,13.56
2018-04-10T05:00:18.190Z,13.62
2018-04-10T05:01:18.183Z,13.56
2018-04-10T05:02:18.264Z,13.56
2018-04-10T05:03:18.158Z,13.56
2018-04-10T05:04:18.211Z,13.56
2018-04-10T05:05:18.184Z,13.56
2018-04-10T05:06:18.183Z,13.56
2018-04-10T05:07:18.201Z,13.56
2018-04-10T05:08:18.368Z,13.56
2018-04-10T05:09:18.197Z,13.5
2018-04-10T05:10:18.188Z,13.56
2018-04-10T05:11:18.231Z,13.56
2018-04-10T05:12:18.269Z,13.5
2018-04-10T05:13:18.394Z,13.5
2018-04-10T05:14:18.226Z,13.5
2018-04-10T05:15:18.235Z,13.56
2018-04-10T05:16:18.233Z,13.5
2018-04-10T05:17:18.299Z,13.5
2018-04-10T05:18:18.225Z,13.5
2018-04-10T05:19:18.249Z,13.5
2018-04-10T05:20:18.202Z,13.5
2018-04-10T05:21:18.316Z,13.5
2018-04-10T05:22:18.258Z,13.56
2018-04-10T05:23:18.247Z,13.5
2018-04-10T05:24:18.212Z,13.5
2018-04-10T05:25:18.195Z,13.5
2018-04-10T05:26:18.297Z,13.5
2018-04-10T05:27:18.297Z,13.5
2018-04-10T05:28:18.334Z,13.5
2018-04-10T05:29:18.272Z,13.5
2018-04-10T05:30:18.252Z,13.5
2018-04-10T05:31:18.281Z,13.5
2018-04-10T05:32:18.297Z,13.5
2018-04-10T05:33:18.291Z,13.5
2018-04-10T05:34:18.372Z,13.5
2018-04-10T05:35:18.237Z,13.5
2018-04-10T05:36:18.309Z,13.5
2018-04-10T05:37:18.356Z,13.5
2018-04-10T05:38:18.305Z,13.5
2018-04-10T05:39:18.411Z,13.56
2018-04-10T05:40:18.270Z,13.5
2018-04-10T05:41:18.281Z,13.5
2018-04-10T05:42:18.336Z,13.5
2018-04-10T05:43:18.418Z,13.5
2018-04-10T05:44:18.301Z,13.5
2018-04-10T05:45:18.295Z,13.5
2018-04-10T05:46:18.326Z,13.5
2018-04-10T05:47:18.377Z,13.5
2018-04-10T05:48:18.349Z,13.56
2018-04-10T05:49:18.306Z,13.56
2018-04-10T05:50:18.299Z,13.5
2018-04-10T05:51:18.337Z,13.56
2018-04-10T05:52:18.353Z,13.56
2018-04-10T05:53:18.361Z,13.56
2018-04-10T05:54:18.326Z,13.56
2018-04-10T05:55:18.322Z,13.56
2018-04-10T05:56:18.343Z,13.56
2018-04-10T05:57:18.339Z,13.56
2018-04-10T05:58:18.372Z,13.62
2018-04-10T05:59:18.345Z,13.56
2018-04-10T06:00:18.370Z,13.62
2018-04-10T06:01:18.359Z,13.62
2018-04-10T06:02:18.371Z,13.62
2018-04-10T06:03:18.398Z,13.62
2018-04-10T06:04:18.380Z,13.69
2018-04-10T06:05:18.361Z,13.69
2018-04-10T06:06:18.370Z,13.69
2018-04-10T06:07:18.344Z,13.69
2018-04-10T06:08:18.350Z,13.69
2018-04-10T06:09:18.347Z,13.69
2018-04-10T06:10:18.371Z,13.75
2018-04-10T06:11:18.384Z,13.75
2018-04-10T06:12:18.379Z,13.75
2018-04-10T06:13:18.413Z,13.75
2018-04-10T06:14:18.440Z,13.75
2018-04-10T06:15:18.385Z,13.75
2018-04-10T06:16:18.352Z,13.81
2018-04-10T06:17:18.412Z,13.81
2018-04-10T06:18:18.420Z,13.81
2018-04-10T06:19:18.398Z,13.81
2018-04-10T06:20:18.465Z,13.81
2018-04-10T06:21:18.443Z,13.81
2018-04-10T06:22:18.399Z,13.81
2018-04-10T06:23:18.420Z,13.81
2018-04-10T06:24:18.447Z,13.81
2018-04-10T06:25:18.457Z,13.88
2018-04-10T06:26:18.430Z,13.94
2018-04-10T06:27:18.424Z,13.88
2018-04-10T06:28:18.429Z,13.88
2018-04-10T06:29:18.527Z,13.88
2018-04-10T06:30:18.502Z,13.94
2018-04-10T06:31:18.416Z,13.94
2018-04-10T06:32:18.441Z,13.94
2018-04-10T06:33:18.453Z,13.94
2018-04-10T06:34:18.453Z,13.94
2018-04-10T06:35:18.439Z,13.94
2018-04-10T06:36:18.408Z,14
2018-04-10T06:37:18.970Z,13.94
2018-04-10T06:38:18.484Z,13.94
2018-04-10T06:39:18.444Z,13.94
2018-04-10T06:40:18.567Z,14
2018-04-10T06:41:18.488Z,14
2018-04-10T06:42:18.467Z,14
2018-04-10T06:43:18.558Z,14
2018-04-10T06:44:18.546Z,14
2018-04-10T06:45:18.507Z,14.06
2018-04-10T06:46:18.532Z,14.06
2018-04-10T06:47:18.468Z,14.06
2018-04-10T06:48:18.481Z,14.13
2018-04-10T06:49:18.581Z,14.13
2018-04-10T06:50:18.577Z,14.06
2018-04-10T06:51:18.503Z,14.06
2018-04-10T06:52:18.496Z,14.06
2018-04-10T06:53:18.556Z,14.13
2018-04-10T06:54:18.509Z,14.06
2018-04-10T06:55:18.521Z,14.13
2018-04-10T06:56:18.616Z,14.13
2018-04-10T06:57:18.522Z,14.13
2018-04-10T06:58:18.542Z,14.19
2018-04-10T06:59:18.503Z,14.19
2018-04-10T07:00:18.514Z,14.25
2018-04-10T07:01:18.506Z,14.19
2018-04-10T07:02:18.627Z,14.25
2018-04-10T07:03:18.562Z,14.25
2018-04-10T07:04:18.517Z,14.25
2018-04-10T07:05:18.595Z,14.25
2018-04-10T07:06:18.550Z,14.25
2018-04-10T07:07:18.543Z,14.25
2018-04-10T07:08:18.525Z,14.19
2018-04-10T07:09:18.572Z,14.19
2018-04-10T07:10:18.588Z,14.25
2018-04-10T07:11:18.530Z,14.25
2018-04-10T07:12:18.605Z,14.19
2018-04-10T07:13:18.802Z,14.19
2018-04-10T07:14:18.602Z,14.19
2018-04-10T07:15:18.574Z,14.25
2018-04-10T07:16:18.540Z,14.25
2018-04-10T07:17:18.554Z,14.31
2018-04-10T07:18:18.569Z,14.38
2018-04-10T07:19:18.589Z,14.38
2018-04-10T07:20:18.582Z,14.44
2018-04-10T07:21:18.642Z,14.44
2018-04-10T07:22:18.610Z,14.56
2018-04-10T07:23:18.635Z,14.56
2018-04-10T07:24:18.585Z,14.56
2018-04-10T07:25:18.599Z,14.63
2018-04-10T07:26:18.599Z,14.69
2018-04-10T07:27:18.583Z,14.69
2018-04-10T07:28:18.641Z,14.75
2018-04-10T07:29:18.605Z,14.81
2018-04-10T07:30:18.627Z,14.81
2018-04-10T07:31:18.625Z,14.87
2018-04-10T07:32:18.707Z,14.94
2018-04-10T07:33:18.618Z,14.94
2018-04-10T07:34:18.631Z,15
2018-04-10T07:35:18.631Z,15.06
2018-04-10T07:36:18.627Z,15.06
2018-04-10T07:37:18.639Z,15.13
2018-04-10T07:38:18.678Z,15.19
2018-04-10T07:39:18.609Z,15.13
2018-04-10T07:40:18.692Z,15.13
2018-04-10T07:41:18.686Z,15.13
2018-04-10T07:42:18.666Z,15.19
2018-04-10T07:43:18.656Z,15.19
2018-04-10T07:44:18.631Z,15.19
2018-04-10T07:45:18.806Z,15.19
2018-04-10T07:46:18.713Z,15.19
2018-04-10T07:47:18.697Z,15.25
2018-04-10T07:48:18.639Z,15.31
2018-04-10T07:49:18.649Z,15.31
2018-04-10T07:50:18.736Z,15.38
2018-04-10T07:51:18.672Z,15.38
2018-04-10T07:52:18.729Z,15.44
2018-04-10T07:53:18.680Z,15.44
2018-04-10T07:54:18.687Z,15.44
2018-04-10T07:55:18.674Z,15.56
2018-04-10T07:56:18.706Z,15.56
2018-04-10T07:57:18.715Z,15.44
2018-04-10T07:58:18.719Z,15.38
2018-04-10T07:59:18.728Z,15.38
2018-04-10T08:00:18.728Z,15.38
2018-04-10T08:01:18.923Z,15.38
2018-04-10T08:02:18.685Z,15.44
2018-04-10T08:03:19.021Z,15.5
2018-04-10T08:04:18.831Z,15.5
2018-04-10T08:05:18.774Z,15.56
2018-04-10T08:06:18.727Z,15.56
2018-04-10T08:07:18.897Z,15.5
2018-04-10T08:08:18.721Z,15.5
2018-04-10T08:09:18.774Z,15.5
2018-04-10T08:10:18.728Z,15.5
2018-04-10T08:11:18.782Z,15.5
2018-04-10T08:12:18.718Z,15.5
2018-04-10T08:13:18.746Z,15.5
2018-04-10T08:14:18.724Z,15.56
2018-04-10T08:15:18.731Z,15.5
2018-04-10T08:16:18.774Z,15.5
2018-04-10T08:17:18.730Z,15.56
2018-04-10T08:18:18.743Z,15.56
2018-04-10T08:19:18.747Z,15.63
2018-04-10T08:20:18.733Z,15.63
2018-04-10T08:21:18.760Z,15.56
2018-04-10T08:22:19.065Z,15.63
2018-04-10T08:23:18.779Z,15.63
2018-04-10T08:24:18.772Z,15.69
2018-04-10T08:25:18.754Z,15.75
2018-04-10T08:26:18.808Z,15.75
2018-04-10T08:27:18.776Z,15.81
2018-04-10T08:28:18.761Z,15.81
2018-04-10T08:29:18.820Z,15.81
2018-04-10T08:30:18.801Z,15.88
2018-04-10T08:31:18.811Z,15.88
2018-04-10T08:32:18.794Z,15.88
2018-04-10T08:33:18.812Z,15.94
2018-04-10T08:34:18.809Z,15.88
2018-04-10T08:35:18.801Z,15.88
2018-04-10T08:36:18.978Z,15.94
2018-04-10T08:37:18.816Z,15.94
2018-04-10T08:38:18.862Z,16
2018-04-10T08:39:18.893Z,16
2018-04-10T08:40:18.811Z,16
2018-04-10T08:41:18.876Z,16
2018-04-10T08:42:18.801Z,16
2018-04-10T08:43:18.827Z,16.06
2018-04-10T08:44:18.833Z,16.06
2018-04-10T08:45:18.824Z,16.06
2018-04-10T08:46:18.823Z,16.12
2018-04-10T08:47:18.849Z,16.12
2018-04-10T08:48:18.827Z,16.25
2018-04-10T08:49:18.833Z,16.19
2018-04-10T08:50:18.957Z,16.25
2018-04-10T08:51:18.840Z,16.31
2018-04-10T08:52:24.971Z,16.25
2018-04-10T08:53:24.388Z,16.31
2018-04-10T08:54:25.746Z,16.37
2018-04-10T08:55:25.760Z,16.44
2018-04-10T08:56:18.900Z,16.37
2018-04-10T08:57:18.874Z,16.37
2018-04-10T08:58:18.872Z,16.37
2018-04-10T08:59:18.885Z,16.31
2018-04-10T09:00:18.902Z,16.37
2018-04-10T09:01:18.923Z,16.44
2018-04-10T09:02:18.904Z,16.44
2018-04-10T09:03:18.922Z,16.5
2018-04-10T09:04:18.902Z,16.62
2018-04-10T09:05:18.972Z,16.69
2018-04-10T09:06:18.886Z,16.62
2018-04-10T09:07:18.923Z,16.62
2018-04-10T09:08:18.895Z,16.75
2018-04-10T09:09:19.388Z,16.75
2018-04-10T09:10:18.934Z,16.81
2018-04-10T09:11:18.894Z,16.87
2018-04-10T09:12:19.007Z,16.94
2018-04-10T09:13:18.933Z,16.94
2018-04-10T09:14:18.922Z,16.94
2018-04-10T09:15:18.977Z,16.94
2018-04-10T09:16:19.210Z,16.94
2018-04-10T09:17:18.956Z,17
2018-04-10T09:18:18.946Z,16.94
2018-04-10T09:19:18.935Z,17
2018-04-10T09:20:18.945Z,17.06
2018-04-10T09:21:18.942Z,17.12
2018-04-10T09:22:19.190Z,17.06
2018-04-10T09:23:18.975Z,17.06
2018-04-10T09:24:18.956Z,17.19
2018-04-10T09:25:18.947Z,17.12
2018-04-10T09:26:18.969Z,17.12
2018-04-10T09:27:19.049Z,17.12
2018-04-10T09:28:18.959Z,17.06
2018-04-10T09:29:18.960Z,17.12
2018-04-10T09:30:19.002Z,17.19
2018-04-10T09:31:18.963Z,17.25
2018-04-10T09:32:18.999Z,17.31
2018-04-10T09:33:18.971Z,17.31
2018-04-10T09:34:19.018Z,17.25
2018-04-10T09:35:19.027Z,17.25
2018-04-10T09:36:19.012Z,17.31
2018-04-10T09:37:18.999Z,17.25
2018-04-10T09:38:19.098Z,17.25
2018-04-10T09:39:18.986Z,17.31
2018-04-10T09:40:19.003Z,17.31
2018-04-10T09:41:19.031Z,17.25
2018-04-10T09:42:19.041Z,17.31
2018-04-10T09:43:19.354Z,17.31
2018-04-10T09:44:19.038Z,17.37
2018-04-10T09:45:19.062Z,17.31
2018-04-10T09:46:19.142Z,17.37
2018-04-10T09:47:19.122Z,17.37
2018-04-10T09:48:19.169Z,17.44
2018-04-10T09:49:19.042Z,17.44
2018-04-10T09:50:19.042Z,17.44
2018-04-10T09:51:19.127Z,17.44
2018-04-10T09:52:19.047Z,17.44
2018-04-10T09:53:19.043Z,17.44
2018-04-10T09:54:19.050Z,17.37
2018-04-10T09:55:19.054Z,17.44
2018-04-10T09:56:19.211Z,17.5
2018-04-10T09:57:19.037Z,17.5
2018-04-10T09:58:19.065Z,17.56
2018-04-10T09:59:19.044Z,17.62
2018-04-10T10:00:19.067Z,17.69
2018-04-10T10:01:19.190Z,17.69
2018-04-10T10:02:19.092Z,17.69
2018-04-10T10:03:19.191Z,17.69
2018-04-10T10:04:19.114Z,17.75
2018-04-10T10:05:19.090Z,17.81
2018-04-10T10:06:19.146Z,17.87
2018-04-10T10:07:19.039Z,17.81
2018-04-10T10:08:19.087Z,17.81
2018-04-10T10:09:19.064Z,17.87
2018-04-10T10:10:19.072Z,17.81
2018-04-10T10:11:19.149Z,17.81
2018-04-10T10:12:19.085Z,17.81
2018-04-10T10:13:19.152Z,17.87
2018-04-10T10:14:19.149Z,17.87
2018-04-10T10:15:19.158Z,17.87
2018-04-10T10:16:19.119Z,17.87
2018-04-10T10:17:19.128Z,17.87
2018-04-10T10:18:19.240Z,17.87
2018-04-10T10:19:19.123Z,17.94
2018-04-10T10:20:19.104Z,17.94
2018-04-10T10:21:19.119Z,17.94
2018-04-10T10:22:19.145Z,17.87
2018-04-10T10:23:19.146Z,17.87
2018-04-10T10:24:19.149Z,17.87
2018-04-10T10:25:19.181Z,17.87
2018-04-10T10:26:19.133Z,17.94
2018-04-10T10:27:19.136Z,18
2018-04-10T10:28:19.183Z,18.06
2018-04-10T10:29:19.149Z,18.12
2018-04-10T10:30:19.132Z,18.12
2018-04-10T10:31:19.183Z,18.12
2018-04-10T10:32:19.158Z,18.25
2018-04-10T10:33:19.193Z,18.31
2018-04-10T10:34:19.159Z,18.31
2018-04-10T10:35:19.188Z,18.31
2018-04-10T10:36:19.157Z,18.37
2018-04-10T10:37:19.193Z,18.44
2018-04-10T10:38:19.202Z,18.44
2018-04-10T10:39:19.191Z,18.44
2018-04-10T10:40:19.218Z,18.37
2018-04-10T10:41:19.440Z,18.44
2018-04-10T10:42:19.188Z,18.5
2018-04-10T10:43:19.216Z,18.56
2018-04-10T10:44:19.185Z,18.56
2018-04-10T10:45:19.219Z,18.62
2018-04-10T10:46:19.251Z,18.62
2018-04-10T10:47:19.194Z,18.69
2018-04-10T10:48:19.216Z,18.75
2018-04-10T10:49:19.211Z,18.75
2018-04-10T10:50:19.220Z,18.81
2018-04-10T10:51:19.221Z,18.75
2018-04-10T10:52:19.332Z,18.81
2018-04-10T10:53:19.251Z,18.69
2018-04-10T10:54:19.243Z,18.69
2018-04-10T10:55:19.235Z,18.69
2018-04-10T10:56:19.232Z,18.56
2018-04-10T10:57:19.280Z,18.62
2018-04-10T10:58:19.266Z,18.62
2018-04-10T10:59:19.264Z,18.62
2018-04-10T11:00:19.294Z,18.56
2018-04-10T11:01:19.281Z,18.62
2018-04-10T11:02:19.235Z,18.62
2018-04-10T11:03:19.267Z,18.75
2018-04-10T11:04:19.240Z,18.81
2018-04-10T11:05:19.287Z,18.87
2018-04-10T11:06:19.280Z,18.87
2018-04-10T11:07:19.305Z,18.81
2018-04-10T11:08:19.250Z,18.94
2018-04-10T11:09:19.342Z,18.87
2018-04-10T11:10:19.328Z,18.81
2018-04-10T11:11:19.410Z,18.87
2018-04-10T11:12:19.346Z,18.87
2018-04-10T11:13:19.269Z,18.87
2018-04-10T11:14:19.325Z,18.87
2018-04-10T11:15:19.319Z,18.94
2018-04-10T11:16:19.306Z,18.94
2018-04-10T11:17:19.314Z,19
2018-04-10T11:18:19.338Z,19.06
2018-04-10T11:19:19.317Z,18.94
2018-04-10T11:20:19.315Z,19
2018-04-10T11:21:19.317Z,19
2018-04-10T11:22:19.286Z,18.94
2018-04-10T11:23:19.293Z,18.94
2018-04-10T11:24:19.314Z,19
2018-04-10T11:25:19.351Z,19.06
2018-04-10T11:26:19.311Z,19.19
2018-04-10T11:27:19.381Z,19.25
2018-04-10T11:28:19.326Z,19.31
2018-04-10T11:29:19.334Z,19.37
2018-04-10T11:30:19.326Z,19.31
2018-04-10T11:31:19.344Z,19.31
2018-04-10T11:32:19.332Z,19.31
2018-04-10T11:33:19.340Z,19.31
2018-04-10T11:34:19.348Z,19.37
2018-04-10T11:35:19.364Z,19.31
2018-04-10T11:36:19.343Z,19.37
2018-04-10T11:37:19.342Z,19.44
2018-04-10T11:38:19.362Z,19.5
2018-04-10T11:39:19.346Z,19.44
2018-04-10T11:40:19.393Z,19.44
2018-04-10T11:41:19.399Z,19.5
2018-04-10T11:42:19.367Z,19.62
2018-04-10T11:43:19.398Z,19.56
2018-04-10T11:44:19.378Z,19.62
2018-04-10T11:45:19.365Z,19.56
2018-04-10T11:46:19.406Z,19.56
2018-04-10T11:47:19.413Z,19.62
2018-04-10T11:48:19.425Z,19.75
2018-04-10T11:49:19.415Z,19.75
2018-04-10T11:50:19.516Z,19.69
2018-04-10T11:51:19.546Z,19.75
2018-04-10T11:52:19.407Z,19.81
2018-04-10T11:53:19.440Z,19.75
2018-04-10T11:54:19.424Z,19.69
2018-04-10T11:55:19.417Z,19.69
2018-04-10T11:56:19.453Z,19.69
2018-04-10T11:57:19.422Z,19.75
2018-04-10T11:58:19.420Z,19.87
2018-04-10T11:59:19.810Z,19.87
2018-04-10T12:00:19.486Z,19.87
2018-04-10T12:01:19.442Z,19.94
2018-04-10T12:02:19.539Z,19.94
2018-04-10T12:03:19.606Z,20
2018-04-10T12:04:19.458Z,20.06
2018-04-10T12:05:19.438Z,20
2018-04-10T12:06:19.414Z,20
2018-04-10T12:07:19.439Z,20.06
2018-04-10T12:08:19.465Z,20.06
2018-04-10T12:09:19.472Z,20.06
2018-04-10T12:10:19.457Z,20
2018-04-10T12:11:19.461Z,20.12
2018-04-10T12:12:19.468Z,20.25
2018-04-10T12:13:19.482Z,20.25
2018-04-10T12:14:19.480Z,20.25
2018-04-10T12:15:19.454Z,20.31
2018-04-10T12:16:19.464Z,20.37
2018-04-10T12:17:19.468Z,20.37
2018-04-10T12:18:19.469Z,20.37
2018-04-10T12:19:19.604Z,20.31
2018-04-10T12:20:19.463Z,20.37
2018-04-10T12:21:19.604Z,20.37
2018-04-10T12:22:19.458Z,20.31
2018-04-10T12:23:19.539Z,20.37
2018-04-10T12:24:19.734Z,20.37
2018-04-10T12:25:19.476Z,20.37
2018-04-10T12:26:19.475Z,20.44
2018-04-10T12:27:19.511Z,20.44
2018-04-10T12:28:19.510Z,20.5
2018-04-10T12:29:19.545Z,20.5
2018-04-10T12:30:19.536Z,20.56
2018-04-10T12:31:19.536Z,20.56
2018-04-10T12:32:19.489Z,20.62
2018-04-10T12:33:19.544Z,20.69
2018-04-10T12:34:19.521Z,20.69
2018-04-10T12:35:19.512Z,20.69
2018-04-10T12:36:19.613Z,20.69
2018-04-10T12:37:19.533Z,20.62
2018-04-10T12:38:19.576Z,20.62
2018-04-10T12:39:19.597Z,20.56
2018-04-10T12:40:19.527Z,20.56
2018-04-10T12:41:19.560Z,20.56
2018-04-10T12:42:19.548Z,20.56
2018-04-10T12:43:19.531Z,20.56
2018-04-10T12:44:19.583Z,20.62
2018-04-10T12:45:19.572Z,20.62
2018-04-10T12:46:19.580Z,20.5
2018-04-10T12:47:19.584Z,20.44
2018-04-10T12:48:19.554Z,20.5
2018-04-10T12:49:19.590Z,20.5
2018-04-10T12:50:19.597Z,20.56
2018-04-10T12:51:19.662Z,20.5
2018-04-10T12:52:19.690Z,20.5
2018-04-10T12:53:19.702Z,20.5
2018-04-10T12:54:19.597Z,20.62
2018-04-10T12:55:19.587Z,20.69
2018-04-10T12:56:19.661Z,20.69
2018-04-10T12:57:19.603Z,20.69
2018-04-10T12:58:19.693Z,20.69
2018-04-10T12:59:19.654Z,20.75
2018-04-10T13:00:19.620Z,20.62